createdAt,value
2023-04-25T00:00:01.525Z,64.73
2023-04-25T00:03:09.960Z,59.94
2023-04-25T00:05:57.919Z,56.57
2023-04-25T00:08:44.377Z,60.01
2023-04-25T00:11:32.135Z,63.44
2023-04-25T00:14:18.837Z,59.79
2023-04-25T00:17:05.438Z,57.59
2023-04-25T00:19:51.995Z,61.49
2023-04-25T00:22:38.648Z,65.53
2023-04-25T00:25:25.833Z,61.31
2023-04-25T00:28:13.114Z,57.74
2023-04-25T00:30:59.721Z,60.88
2023-04-25T00:33:46.460Z,65.21
2023-04-25T00:36:33.310Z,60.45
2023-04-25T00:39:19.836Z,56.07
2023-04-25T00:42:06.901Z,58.60
2023-04-25T00:44:54.156Z,63.67
2023-04-25T00:47:41.531Z,62.62
2023-04-25T00:50:28.153Z,56.05
2023-04-25T00:53:14.592Z,58.06
2023-04-25T00:56:01.040Z,63.04
2023-04-25T00:58:48.831Z,64.35
2023-04-25T01:01:36.153Z,60.59
2023-04-25T01:04:23.215Z,54.92
2023-04-25T01:07:11.276Z,58.60
2023-04-25T01:09:57.860Z,61.63
2023-04-25T01:12:44.664Z,64.26
2023-04-25T01:15:31.121Z,58.63
2023-04-25T01:18:19.017Z,57.86
2023-04-25T01:21:14.139Z,61.76
2023-04-25T01:24:01.413Z,66.03
2023-04-25T01:26:51.432Z,61.01
2023-04-25T01:29:43.251Z,56.96
2023-04-25T01:32:30.625Z,60.39
2023-04-25T01:35:17.060Z,64.01
2023-04-25T01:38:03.555Z,58.88
2023-04-25T01:40:51.788Z,56.75
2023-04-25T01:43:39.550Z,60.64
2023-04-25T01:46:26.330Z,67.22
2023-04-25T01:49:13.166Z,63.24
2023-04-25T01:52:01.133Z,55.63
2023-04-25T01:54:48.885Z,58.00
2023-04-25T01:57:36.636Z,62.79
2023-04-25T02:00:24.179Z,66.38
2023-04-25T02:03:11.024Z,60.43
2023-04-25T02:05:57.862Z,56.04
2023-04-25T02:08:45.304Z,59.97
2023-04-25T02:11:33.208Z,64.20
2023-04-25T02:14:39.230Z,58.19
2023-04-25T02:17:33.560Z,58.37
2023-04-25T02:20:22.450Z,62.92
2023-04-25T02:23:09.306Z,63.87
2023-04-25T02:25:58.215Z,56.98
2023-04-25T02:28:45.041Z,59.70
2023-04-25T02:31:31.636Z,64.58
2023-04-25T02:34:18.254Z,62.80
2023-04-25T02:37:05.033Z,56.84
2023-04-25T02:39:51.587Z,58.89
2023-04-25T02:42:38.734Z,61.77
2023-04-25T02:45:24.993Z,62.87
2023-04-25T02:48:11.518Z,57.93
2023-04-25T02:50:58.089Z,60.35
2023-04-25T02:53:45.119Z,64.71
2023-04-25T02:56:31.859Z,60.63
2023-04-25T02:59:18.221Z,56.34
2023-04-25T03:02:04.654Z,58.09
2023-04-25T03:04:51.152Z,64.20
2023-04-25T03:07:37.787Z,60.55
2023-04-25T03:10:24.354Z,55.87
2023-04-25T03:13:11.205Z,59.02
2023-04-25T03:15:58.467Z,64.56
2023-04-25T03:18:45.887Z,59.80
2023-04-25T03:21:34.366Z,57.13
2023-04-25T03:24:20.779Z,59.56
2023-04-25T03:27:07.395Z,65.90
2023-04-25T03:29:53.676Z,61.45
2023-04-25T03:32:40.604Z,56.56
2023-04-25T03:35:27.621Z,60.02
2023-04-25T03:38:14.479Z,65.72
2023-04-25T03:41:02.973Z,61.78
2023-04-25T03:44:12.278Z,55.51
2023-04-25T03:46:59.898Z,58.84
2023-04-25T03:49:46.428Z,62.03
2023-04-25T03:52:33.050Z,65.70
2023-04-25T03:55:19.547Z,59.11
2023-04-25T03:58:06.159Z,55.32
2023-04-25T04:00:52.899Z,59.76
2023-04-25T04:03:39.615Z,64.53
2023-04-25T04:06:26.689Z,59.65
2023-04-25T04:09:21.531Z,54.91
2023-04-25T04:12:08.205Z,59.32
2023-04-25T04:14:55.727Z,63.94
2023-04-25T04:17:42.583Z,62.46
2023-04-25T04:20:31.381Z,55.89
2023-04-25T04:23:17.791Z,56.95
2023-04-25T04:26:04.559Z,60.72
2023-04-25T04:29:21.939Z,66.59
2023-04-25T04:32:28.625Z,57.54
2023-04-25T04:35:15.468Z,58.33
2023-04-25T04:38:02.203Z,61.96
2023-04-25T04:40:53.561Z,64.42
2023-04-25T04:43:57.058Z,56.69
2023-04-25T04:46:52.057Z,59.27
2023-04-25T04:49:58.762Z,63.11
2023-04-25T04:53:03.337Z,62.10
2023-04-25T04:56:19.057Z,55.71
2023-04-25T04:59:25.304Z,57.94
2023-04-25T05:02:26.487Z,63.17
2023-04-25T05:05:13.275Z,62.78
2023-04-25T05:08:20.234Z,55.78
2023-04-25T05:11:21.939Z,56.25
2023-04-25T05:14:25.854Z,59.96
2023-04-25T05:17:28.429Z,66.22
2023-04-25T05:20:36.461Z,59.99
2023-04-25T05:23:45.672Z,54.14
2023-04-25T05:26:52.740Z,58.13
2023-04-25T05:30:01.946Z,59.89
2023-04-25T05:32:54.475Z,64.28
2023-04-25T05:35:41.225Z,56.70
2023-04-25T05:38:27.773Z,56.05
2023-04-25T05:41:37.182Z,60.32
2023-04-25T05:44:44.315Z,63.92
2023-04-25T05:47:44.120Z,62.90
2023-04-25T05:50:39.106Z,55.42
2023-04-25T05:53:41.570Z,56.74
2023-04-25T05:56:27.734Z,59.88
2023-04-25T05:59:15.748Z,63.29
2023-04-25T06:02:02.820Z,63.35
2023-04-25T06:04:53.424Z,55.12
2023-04-25T06:07:41.595Z,56.98
2023-04-25T06:10:27.933Z,59.40
2023-04-25T06:13:14.200Z,63.09
2023-04-25T06:16:00.643Z,65.90
2023-04-25T06:18:47.817Z,56.78
2023-04-25T06:21:35.577Z,55.41
2023-04-25T06:24:22.330Z,58.43
2023-04-25T06:27:08.992Z,60.33
2023-04-25T06:29:55.670Z,62.88
2023-04-25T06:32:41.836Z,58.40
2023-04-25T06:35:28.761Z,53.78
2023-04-25T06:38:16.647Z,57.22
2023-04-25T06:41:05.996Z,60.26
2023-04-25T06:43:54.476Z,61.50
2023-04-25T06:46:53.671Z,61.10
2023-04-25T06:49:40.355Z,55.17
2023-04-25T06:52:26.776Z,57.84
2023-04-25T06:55:13.813Z,59.78
2023-04-25T06:58:17.106Z,61.52
2023-04-25T07:01:12.884Z,61.59
2023-04-25T07:03:59.702Z,62.95
2023-04-25T07:06:48.722Z,57.87
2023-04-25T07:09:36.612Z,53.45
2023-04-25T07:12:23.566Z,55.80
2023-04-25T07:15:11.738Z,57.50
2023-04-25T07:18:00.518Z,58.58
2023-04-25T07:20:47.746Z,60.05
2023-04-25T07:23:34.734Z,59.93
2023-04-25T07:26:25.227Z,60.69
2023-04-25T07:29:38.469Z,59.62
2023-04-25T07:32:26.618Z,59.36
2023-04-25T07:35:14.270Z,59.77
2023-04-25T07:38:00.742Z,60.14
2023-04-25T07:40:49.880Z,59.47
2023-04-25T07:43:36.885Z,59.58
2023-04-25T07:46:23.845Z,60.13
2023-04-25T07:49:11.416Z,60.86
2023-04-25T07:51:58.855Z,61.41
2023-04-25T07:54:46.185Z,61.72
2023-04-25T07:57:36.474Z,63.97
2023-04-25T08:00:23.169Z,55.24
2023-04-25T08:03:11.696Z,53.54
2023-04-25T08:05:59.182Z,55.34
2023-04-25T08:08:46.577Z,57.41
2023-04-25T08:11:34.339Z,58.33
2023-04-25T08:14:20.792Z,59.16
2023-04-25T08:17:08.288Z,60.03
2023-04-25T08:19:59.410Z,60.33
2023-04-25T08:22:50.310Z,60.43
2023-04-25T08:25:47.613Z,60.11
2023-04-25T08:28:34.941Z,60.90
2023-04-25T08:31:21.768Z,60.82
2023-04-25T08:34:21.110Z,60.59
2023-04-25T08:37:10.867Z,60.72
2023-04-25T08:40:08.157Z,60.66
2023-04-25T08:43:15.844Z,60.13
2023-04-25T08:46:02.567Z,60.09
2023-04-25T08:49:03.108Z,60.16
2023-04-25T08:51:52.200Z,60.30
2023-04-25T08:54:45.512Z,60.55
2023-04-25T08:57:32.822Z,60.09
2023-04-25T09:00:20.023Z,60.14
2023-04-25T09:03:07.111Z,60.01
2023-04-25T09:05:55.386Z,59.84
2023-04-25T09:08:42.223Z,59.39
2023-04-25T09:11:29.150Z,58.30
2023-04-25T09:14:21.837Z,58.52
2023-04-25T09:17:34.905Z,57.93
2023-04-25T09:20:21.595Z,56.74
2023-04-25T09:23:08.348Z,56.87
2023-04-25T09:25:57.485Z,55.70
2023-04-25T09:28:44.191Z,55.85
2023-04-25T09:31:31.429Z,55.81
2023-04-25T09:34:19.931Z,54.39
2023-04-25T09:37:13.120Z,53.83
2023-04-25T09:40:19.425Z,52.56
2023-04-25T09:43:25.848Z,52.40
2023-04-25T09:46:12.976Z,52.00
2023-04-25T09:49:09.549Z,52.94
2023-04-25T09:52:26.139Z,53.82
2023-04-25T09:55:36.713Z,52.84
2023-04-25T09:58:25.503Z,52.80
2023-04-25T10:01:12.114Z,52.12
2023-04-25T10:04:07.871Z,52.87
2023-04-25T10:07:10.068Z,53.46
2023-04-25T10:10:03.969Z,53.43
2023-04-25T10:12:50.709Z,53.36
2023-04-25T10:15:40.452Z,53.46
2023-04-25T10:18:28.602Z,54.20
2023-04-25T10:21:17.179Z,54.20
2023-04-25T10:24:04.370Z,53.76
2023-04-25T10:26:52.117Z,52.36
2023-04-25T10:29:38.468Z,53.00
2023-04-25T10:32:25.108Z,53.04
2023-04-25T10:35:19.982Z,53.26
2023-04-25T10:38:15.444Z,52.44
2023-04-25T10:41:09.952Z,50.81
2023-04-25T10:44:02.606Z,50.38
2023-04-25T10:46:49.557Z,50.78
2023-04-25T10:49:51.707Z,50.40
2023-04-25T10:52:41.623Z,51.25
2023-04-25T10:55:27.843Z,51.83
2023-04-25T10:58:14.076Z,51.21
2023-04-25T11:01:02.591Z,51.63
2023-04-25T11:03:51.811Z,51.13
2023-04-25T11:07:27.578Z,51.37
2023-04-25T11:10:15.084Z,52.45
2023-04-25T11:13:01.733Z,52.52
2023-04-25T11:16:03.038Z,52.14
2023-04-25T11:18:59.298Z,52.58
2023-04-25T11:21:45.912Z,52.82
2023-04-25T11:24:37.415Z,53.11
2023-04-25T11:27:25.794Z,53.81
2023-04-25T11:30:17.185Z,54.35
2023-04-25T11:33:04.425Z,54.29
2023-04-25T11:35:50.939Z,53.87
2023-04-25T11:38:37.524Z,53.64
2023-04-25T11:41:24.447Z,53.63
2023-04-25T11:44:12.005Z,53.57
2023-04-25T11:46:58.659Z,53.49
2023-04-25T11:49:45.317Z,52.89
2023-04-25T11:52:39.769Z,52.72
2023-04-25T11:55:27.442Z,51.85
2023-04-25T11:58:14.840Z,51.86
2023-04-25T12:01:01.352Z,51.52
2023-04-25T12:03:47.969Z,50.75
2023-04-25T12:06:41.056Z,49.15
2023-04-25T12:09:34.778Z,49.27
2023-04-25T12:12:21.812Z,48.66
2023-04-25T12:15:16.661Z,48.19
2023-04-25T12:18:03.658Z,48.56
2023-04-25T12:20:50.514Z,48.10
2023-04-25T12:23:40.350Z,47.93
2023-04-25T12:26:27.113Z,47.54
2023-04-25T12:29:18.676Z,47.17
2023-04-25T12:32:05.666Z,45.34
2023-04-25T12:34:52.371Z,46.58
2023-04-25T12:37:38.576Z,46.33
2023-04-25T12:40:25.866Z,45.81
2023-04-25T12:43:12.250Z,46.79
2023-04-25T12:45:58.745Z,46.01
2023-04-25T12:48:45.463Z,46.35
2023-04-25T12:51:33.870Z,45.42
2023-04-25T12:54:20.834Z,44.47
2023-04-25T12:57:07.503Z,44.54
2023-04-25T12:59:53.718Z,45.32
2023-04-25T13:02:40.318Z,45.31
2023-04-25T13:05:27.240Z,45.70
2023-04-25T13:08:13.721Z,46.39
2023-04-25T13:11:01.354Z,47.48
2023-04-25T13:13:48.194Z,48.48
2023-04-25T13:16:34.860Z,49.61
2023-04-25T13:19:21.351Z,50.18
2023-04-25T13:22:08.074Z,51.06
2023-04-25T13:24:54.644Z,51.29
2023-04-25T13:27:41.789Z,51.65
2023-04-25T13:30:28.583Z,51.94
2023-04-25T13:33:15.978Z,51.93
2023-04-25T13:36:02.602Z,52.60
2023-04-25T13:38:50.255Z,52.93
2023-04-25T13:41:37.883Z,52.78
2023-04-25T13:44:24.414Z,51.82
2023-04-25T13:47:10.890Z,51.23
2023-04-25T13:49:57.910Z,50.52
2023-04-25T13:52:44.467Z,49.60
2023-04-25T13:55:31.399Z,49.74
2023-04-25T13:58:17.897Z,49.93
2023-04-25T14:01:04.780Z,49.53
2023-04-25T14:03:51.286Z,49.63
2023-04-25T14:06:38.560Z,51.09
2023-04-25T14:09:26.682Z,52.20
2023-04-25T14:12:13.411Z,53.77
2023-04-25T14:15:00.084Z,55.90
2023-04-25T14:17:47.053Z,58.83
2023-04-25T14:20:33.430Z,61.09
2023-04-25T14:23:19.970Z,65.55
2023-04-25T14:26:06.715Z,60.48
2023-04-25T14:28:53.434Z,56.49
2023-04-25T14:31:44.055Z,59.68
2023-04-25T14:34:30.773Z,65.19
2023-04-25T14:37:17.249Z,61.52
2023-04-25T14:40:04.321Z,54.98
2023-04-25T14:42:52.178Z,56.66
2023-04-25T14:45:38.784Z,59.59
2023-04-25T14:48:25.781Z,61.98
2023-04-25T14:51:12.482Z,65.62
2023-04-25T14:53:59.163Z,58.91
2023-04-25T14:56:45.890Z,52.98
2023-04-25T14:59:32.775Z,54.85
2023-04-25T15:02:19.087Z,56.40
2023-04-25T15:05:06.682Z,57.60
2023-04-25T15:07:53.107Z,58.57
2023-04-25T15:10:39.985Z,60.10
2023-04-25T15:13:27.437Z,60.78
2023-04-25T15:16:14.179Z,60.86
2023-04-25T15:19:01.526Z,61.13
2023-04-25T15:21:49.069Z,61.09
2023-04-25T15:24:35.658Z,61.97
2023-04-25T15:27:23.174Z,64.43
2023-04-25T15:30:12.204Z,54.25
2023-04-25T15:32:58.650Z,54.62
2023-04-25T15:35:45.556Z,55.12
2023-04-25T15:38:33.077Z,56.66
2023-04-25T15:41:19.540Z,57.47
2023-04-25T15:44:07.949Z,58.48
2023-04-25T15:46:55.259Z,59.04
2023-04-25T15:49:41.920Z,59.36
2023-04-25T15:52:28.832Z,59.63
2023-04-25T15:55:16.759Z,61.03
2023-04-25T15:58:03.441Z,61.12
2023-04-25T16:00:51.766Z,61.41
2023-04-25T16:03:38.887Z,64.63
2023-04-25T16:06:27.525Z,62.64
2023-04-25T16:09:13.790Z,54.50
2023-04-25T16:12:00.589Z,53.17
2023-04-25T16:14:47.021Z,54.70
2023-04-25T16:17:33.853Z,57.11
2023-04-25T16:20:20.199Z,58.46
2023-04-25T16:23:06.838Z,59.31
2023-04-25T16:25:55.081Z,60.00
2023-04-25T16:28:41.732Z,61.52
2023-04-25T16:31:27.998Z,65.21
2023-04-25T16:34:15.585Z,56.43
2023-04-25T16:37:02.453Z,53.26
2023-04-25T16:39:48.856Z,55.56
2023-04-25T16:42:36.476Z,56.29
2023-04-25T16:45:24.394Z,58.96
2023-04-25T16:48:10.996Z,60.46
2023-04-25T16:50:57.794Z,60.98
2023-04-25T16:53:44.910Z,66.72
2023-04-25T16:56:31.160Z,60.85
2023-04-25T16:59:18.296Z,52.47
2023-04-25T17:02:05.335Z,53.85
2023-04-25T17:04:52.521Z,56.24
2023-04-25T17:07:39.245Z,57.62
2023-04-25T17:10:25.818Z,59.52
2023-04-25T17:13:12.213Z,61.17
2023-04-25T17:15:59.424Z,65.20
2023-04-25T17:18:46.274Z,56.60
2023-04-25T17:21:33.497Z,55.09
2023-04-25T17:24:21.989Z,56.94
2023-04-25T17:27:08.554Z,59.26
2023-04-25T17:29:54.965Z,60.81
2023-04-25T17:32:41.589Z,61.53
2023-04-25T17:35:29.072Z,68.17
2023-04-25T17:38:15.917Z,62.04
2023-04-25T17:41:02.678Z,53.80
2023-04-25T17:43:49.552Z,55.14
2023-04-25T17:46:36.512Z,57.69
2023-04-25T17:49:23.203Z,60.84
2023-04-25T17:52:09.719Z,61.72
2023-04-25T17:54:56.359Z,68.65
2023-04-25T17:57:43.767Z,59.92
2023-04-25T18:00:32.509Z,51.94
2023-04-25T18:03:19.255Z,51.67
2023-04-25T18:06:05.952Z,52.23
2023-04-25T18:08:53.077Z,54.01
2023-04-25T18:11:40.481Z,56.72
2023-04-25T18:14:27.241Z,58.75
2023-04-25T18:17:14.704Z,60.61
2023-04-25T18:20:01.960Z,68.25
2023-04-25T18:22:48.546Z,67.81
2023-04-25T18:25:35.080Z,59.44
2023-04-25T18:28:22.318Z,53.80
2023-04-25T18:31:09.472Z,55.67
2023-04-25T18:33:56.271Z,58.64
2023-04-25T18:36:42.411Z,61.32
2023-04-25T18:39:29.039Z,66.30
2023-04-25T18:42:15.459Z,56.22
2023-04-25T18:45:02.985Z,51.81
2023-04-25T18:47:50.471Z,52.44
2023-04-25T18:50:47.061Z,53.35
2023-04-25T18:53:33.945Z,54.34
2023-04-25T18:56:22.780Z,54.76
2023-04-25T18:59:08.957Z,56.06
2023-04-25T19:01:55.399Z,56.12
2023-04-25T19:04:43.424Z,56.58
2023-04-25T19:07:31.266Z,57.25
2023-04-25T19:10:18.133Z,57.72
2023-04-25T19:13:05.102Z,57.97
2023-04-25T19:15:51.325Z,58.00
2023-04-25T19:18:38.853Z,57.69
2023-04-25T19:21:25.533Z,57.44
2023-04-25T19:24:12.296Z,58.19
2023-04-25T19:26:59.318Z,57.76
2023-04-25T19:29:48.400Z,57.47
2023-04-25T19:32:35.804Z,57.55
2023-04-25T19:35:22.299Z,56.74
2023-04-25T19:38:08.920Z,56.36
2023-04-25T19:40:56.368Z,55.81
2023-04-25T19:43:42.964Z,55.14
2023-04-25T19:46:29.966Z,55.31
2023-04-25T19:49:17.356Z,55.32
2023-04-25T19:52:06.950Z,55.27
2023-04-25T19:54:54.990Z,55.90
2023-04-25T19:57:41.338Z,55.97
2023-04-25T20:00:28.014Z,57.27
2023-04-25T20:03:16.555Z,58.05
2023-04-25T20:06:03.357Z,58.33
2023-04-25T20:08:53.455Z,59.08
2023-04-25T20:11:40.443Z,59.52
2023-04-25T20:14:27.305Z,59.49
2023-04-25T20:17:13.611Z,59.72
2023-04-25T20:19:59.873Z,59.99
2023-04-25T20:22:46.465Z,59.97
2023-04-25T20:25:32.811Z,60.62
2023-04-25T20:28:21.997Z,60.94
2023-04-25T20:31:10.670Z,60.73
2023-04-25T20:33:57.090Z,61.52
2023-04-25T20:36:43.709Z,60.94
2023-04-25T20:39:30.069Z,60.89
2023-04-25T20:42:16.538Z,61.36
2023-04-25T20:45:07.526Z,68.06
2023-04-25T20:47:54.294Z,70.71
2023-04-25T20:50:41.235Z,58.55
2023-04-25T20:53:28.009Z,50.29
2023-04-25T20:56:15.095Z,50.44
2023-04-25T20:59:01.728Z,52.53
2023-04-25T21:01:49.043Z,53.30
2023-04-25T21:04:35.956Z,54.73
2023-04-25T21:07:22.879Z,56.01
2023-04-25T21:10:09.794Z,56.65
2023-04-25T21:12:57.957Z,58.52
2023-04-25T21:15:45.084Z,57.96
2023-04-25T21:18:32.059Z,58.76
2023-04-25T21:21:18.715Z,59.42
2023-04-25T21:24:06.801Z,61.69
2023-04-25T21:26:53.497Z,73.50
2023-04-25T21:29:40.067Z,63.72
2023-04-25T21:32:27.079Z,52.13
2023-04-25T21:35:14.792Z,51.60
2023-04-25T21:38:01.348Z,53.79
2023-04-25T21:40:48.456Z,55.65
2023-04-25T21:43:35.002Z,56.14
2023-04-25T21:46:24.452Z,57.72
2023-04-25T21:49:11.691Z,58.32
2023-04-25T21:51:58.509Z,60.73
2023-04-25T21:54:44.957Z,60.78
2023-04-25T21:57:31.591Z,61.44
2023-04-25T22:00:24.637Z,68.78
2023-04-25T22:03:11.728Z,65.00
2023-04-25T22:05:58.932Z,53.22
2023-04-25T22:08:45.483Z,51.81
2023-04-25T22:11:32.379Z,54.28
2023-04-25T22:14:21.962Z,55.38
2023-04-25T22:17:09.984Z,57.42
2023-04-25T22:19:56.742Z,57.75
2023-04-25T22:22:47.099Z,59.19
2023-04-25T22:25:34.004Z,59.57
2023-04-25T22:28:21.417Z,59.67
2023-04-25T22:31:08.622Z,68.05
2023-04-25T22:33:55.532Z,65.26
2023-04-25T22:36:42.035Z,52.74
2023-04-25T22:39:28.566Z,51.93
2023-04-25T22:42:14.961Z,54.31
2023-04-25T22:45:02.009Z,56.07
2023-04-25T22:47:48.431Z,58.56
2023-04-25T22:50:35.619Z,59.55
2023-04-25T22:53:22.289Z,60.17
2023-04-25T22:56:10.200Z,60.84
2023-04-25T22:58:57.146Z,64.32
2023-04-25T23:01:43.906Z,66.15
2023-04-25T23:04:30.659Z,54.41
2023-04-25T23:07:17.605Z,52.90
2023-04-25T23:10:04.801Z,55.22
2023-04-25T23:12:54.876Z,56.80
2023-04-25T23:15:41.632Z,57.99
2023-04-25T23:18:28.393Z,59.03
2023-04-25T23:21:14.761Z,60.83
2023-04-25T23:24:00.958Z,64.75
2023-04-25T23:26:47.571Z,66.27
2023-04-25T23:29:34.866Z,58.55
2023-04-25T23:32:22.393Z,49.96
2023-04-25T23:35:10.304Z,51.71
2023-04-25T23:37:56.710Z,54.77
2023-04-25T23:40:43.297Z,58.13
2023-04-25T23:43:29.690Z,58.56
2023-04-25T23:46:16.301Z,59.17
2023-04-25T23:49:04.504Z,64.09
2023-04-25T23:51:51.502Z,68.28
2023-04-25T23:54:38.185Z,57.91
2023-04-25T23:57:25.050Z,51.50
